Airfield :







YOU CAN JOIN US ON...

 
LOGIN :

Register | Disclaimer

   EN    FR    IT 

 









Legend :    VFR   Marginal VFR   IFR   Intensive IFR   Very Intensive IFR
Visi :
Ceiling :
>= 8 km
>= 3000ft
5 to 8 km
1000 to 3000 ft
1500m to 5 km
500 to 1000 ft
800 to 1500m
200 to 500 ft
< 800m
< 200 ft
Symbols :   Thunderstorms  Fog  Heavy snow  Heavy precipitations  Wind > 20 kt






- Airport Elevation : 203 ft
- IATA code : YQY


CYQY - Sydney

CURRENT METAR :
  • 150700Z 20024G41KT 7SM RA OVC008 13/13 A2943 RMK NS8 PRESFR SLP967 DENSITY ALT 700FT

EXPIRED METARs :
  • 150600Z 19022G31KT 7SM RA OVC007 13/12 A2947 RMK NS8 PRESFR SLP983 DENSITY ALT 600FT
  • 150544Z 19019G33KT 7SM RA BKN009 OVC046 13/12 A2950 RMK NS7SC1 SLP992 DENSITY ALT 500FT
  • 150500Z 19023G34KT 7SM -RA OVC006 13/13 A2953 RMK NS8 PRESFR SLP002 DENSITY ALT 500FT
  • 150451Z 19022G32KT 7SM -RA OVC005 13/13 A2953 RMK NS8 PRESFR SLP004 DENSITY ALT 500FT

TAF TAF CYQY
Valid from the 15 at 06:00 until the 15 at 18:00 UTC


150538Z 1506/1518 19022G32KT 11/2SM -RA BR OVC004
TEMPO 1506/1515 6SM -RA BR OVC006
FM151500 21020G30KT 5SM -DZ BR BKN008
BECMG 1515/1517 P6SM NSW BKN025 RMK NXT FCST BY 151200Z



MET'MAP, your aeronautical weather chart ! - Copyright ORBIFLY December 2007 - Disclaimer

ORBIFLY MET'MAP TEAM :

Programming & Development : Alexandra Zaïnal
Concept & original design : Baudouin d'Aumeries
Assistance for programming : Marc-Olivier Méhu
Technical & hardware support : Manuel Goepfert

Contact : metmap@orbifly.com




SOURCES & CREDITS :

   NOAA